Thame, United Kingdom
Current Conditions -  °F | °C
As of 7:52 AM on Friday 31 Oct 2014 (Local Time) from EGUB Reporting Station
Haze Haze  
Wind Chill: 59°   Ceiling: 25000
Heat Index: 59°   Visibility: 4mi
Dew Point: 55°   Wind: 10mph
Humidity: 88%   Direction: 130°SE
Pressure: 30"   Gusts: NA
Location:  51.75°N, 0.98°W
Report Text: EGUB 310752Z 13009KT 7000 HZ FEW006 SCT100 OVC250 15/13 Q1016 WHT BECMG 9999 NSW BLU
Loading
Personal Weather Stations






























Interactive Weather Map
Tropical Storm Tracking
New forecast layout! Learn more

10-Day Weather Forecast

Advertisements
Track Severe Weather on mobile